Thompson, Michigan
Current Conditions -  °F | °C
As of 9:15 PM on Wednesday 17 Dec 2014 (Local Time) from KISQ Reporting Station
Overcast Overcast  
Wind Chill: -10°   Ceiling: 1200
Heat Index: -3°   Visibility: 10mi
Dew Point: -4°   Wind: 16mph
Humidity: 92%   Direction: 360°N
Pressure: 30.14"   Gusts: NA
Location:  46.1571°N, 86.3397°W
Report Text: KISQ 180215Z AUTO 36014KT 10SM OVC012 M03/M04 A3014 RMK AO2 T10281040
Loading
Personal Weather Stations






























Interactive Weather Map New forecast layout! Learn more

10-Day Weather Forecast

Advertisements
Track Severe Weather on mobile